createdAt,value
2023-06-11T00:00:31.082Z,98558.59
2023-06-11T00:02:58.675Z,98561.78
2023-06-11T00:05:28.881Z,98548.97
2023-06-11T00:08:02.169Z,98563.44
2023-06-11T00:10:29.605Z,98556.53
2023-06-11T00:12:56.484Z,98550.84
2023-06-11T00:15:23.539Z,98536.78
2023-06-11T00:17:50.659Z,98547.28
2023-06-11T00:20:17.700Z,98565.75
2023-06-11T00:22:44.724Z,98536.16
2023-06-11T00:25:13.022Z,98568.97
2023-06-11T00:27:40.445Z,98550.94
2023-06-11T00:30:08.073Z,98567.50
2023-06-11T00:32:37.021Z,98563.63
2023-06-11T00:35:10.783Z,98560.06
2023-06-11T00:37:38.416Z,98563.56
2023-06-11T00:40:07.467Z,98579.78
2023-06-11T00:42:34.971Z,98542.81
2023-06-11T00:45:04.958Z,98586.78
2023-06-11T00:47:32.895Z,98562.69
2023-06-11T00:50:01.582Z,98586.25
2023-06-11T00:52:28.813Z,98569.72
2023-06-11T00:54:58.638Z,98584.53
2023-06-11T00:57:27.340Z,98579.63
2023-06-11T00:59:55.414Z,98588.06
2023-06-11T01:02:25.494Z,98594.72
2023-06-11T01:04:58.934Z,98610.59
2023-06-11T01:07:31.497Z,98586.22
2023-06-11T01:10:03.070Z,98587.34
2023-06-11T01:12:33.323Z,98597.28
2023-06-11T01:15:00.795Z,98592.75
2023-06-11T01:17:42.264Z,98610.66
2023-06-11T01:20:17.773Z,98600.06
2023-06-11T01:23:17.711Z,98610.44
2023-06-11T01:25:55.949Z,98605.19
2023-06-11T01:28:29.786Z,98603.44
2023-06-11T01:31:00.432Z,98615.34
2023-06-11T01:33:28.714Z,98616.25
2023-06-11T01:35:59.477Z,98575.00
2023-06-11T01:38:35.892Z,98612.19
2023-06-11T01:41:03.681Z,98604.53
2023-06-11T01:43:30.919Z,98615.78
2023-06-11T01:45:59.890Z,98611.69
2023-06-11T01:48:26.996Z,98596.47
2023-06-11T01:50:53.988Z,98613.25
2023-06-11T01:53:21.989Z,98622.44
2023-06-11T01:55:49.156Z,98600.72
2023-06-11T01:58:17.960Z,98607.50
2023-06-11T02:00:45.061Z,98599.16
2023-06-11T02:03:12.597Z,98614.59
2023-06-11T02:05:39.680Z,98631.22
2023-06-11T02:08:06.603Z,98596.97
2023-06-11T02:10:33.728Z,98598.50
2023-06-11T02:13:00.608Z,98600.84
2023-06-11T02:15:27.553Z,98608.94
2023-06-11T02:17:54.536Z,98633.63
2023-06-11T02:20:21.634Z,98630.34
2023-06-11T02:22:48.742Z,98597.22
2023-06-11T02:25:15.850Z,98633.19
2023-06-11T02:27:42.831Z,98625.09
2023-06-11T02:30:10.216Z,98625.66
2023-06-11T02:32:37.265Z,98637.19
2023-06-11T02:35:04.686Z,98632.81
2023-06-11T02:37:31.602Z,98639.66
2023-06-11T02:39:58.684Z,98618.13
2023-06-11T02:42:25.651Z,98590.19
2023-06-11T02:44:52.743Z,98620.25
2023-06-11T02:47:20.012Z,98615.13
2023-06-11T02:49:47.014Z,98645.41
2023-06-11T02:52:14.242Z,98621.28
2023-06-11T02:54:41.336Z,98629.31
2023-06-11T02:57:08.349Z,98651.78
2023-06-11T02:59:35.724Z,98631.63
2023-06-11T03:02:02.651Z,98653.38
2023-06-11T03:04:29.571Z,98662.19
2023-06-11T03:06:56.623Z,98641.84
2023-06-11T03:09:25.455Z,98653.44
2023-06-11T03:11:53.130Z,98657.38
2023-06-11T03:14:22.241Z,98672.66
2023-06-11T03:16:49.285Z,98669.88
2023-06-11T03:19:16.420Z,98662.38
2023-06-11T03:21:43.556Z,98660.44
2023-06-11T03:24:12.105Z,98662.91
2023-06-11T03:26:39.101Z,98657.69
2023-06-11T03:29:06.323Z,98675.31
2023-06-11T03:31:41.751Z,98687.81
2023-06-11T03:34:09.176Z,98668.22
2023-06-11T03:36:37.433Z,98683.63
2023-06-11T03:39:08.872Z,98680.09
2023-06-11T03:41:36.226Z,98678.00
2023-06-11T03:44:04.016Z,98690.59
2023-06-11T03:46:31.840Z,98693.13
2023-06-11T03:48:58.966Z,98679.16
2023-06-11T03:51:26.045Z,98700.16
2023-06-11T03:53:53.554Z,98700.69
2023-06-11T03:56:21.082Z,98702.88
2023-06-11T03:58:48.385Z,98690.69
2023-06-11T04:01:15.737Z,98699.97
2023-06-11T04:03:42.798Z,98680.56
2023-06-11T04:06:10.367Z,98669.81
2023-06-11T04:08:37.357Z,98671.16
2023-06-11T04:11:04.865Z,98698.91
2023-06-11T04:13:31.982Z,98683.44
2023-06-11T04:15:58.990Z,98667.13
2023-06-11T04:18:25.938Z,98688.50
2023-06-11T04:20:55.599Z,98676.16
2023-06-11T04:23:22.953Z,98685.84
2023-06-11T04:25:50.352Z,98660.34
2023-06-11T04:28:19.272Z,98690.00
2023-06-11T04:30:47.459Z,98683.31
2023-06-11T04:33:17.023Z,98672.19
2023-06-11T04:35:45.745Z,98686.31
2023-06-11T04:38:12.678Z,98676.03
2023-06-11T04:40:41.416Z,98682.47
2023-06-11T04:43:09.965Z,98679.31
2023-06-11T04:45:37.530Z,98683.34
2023-06-11T04:48:05.595Z,98686.59
2023-06-11T04:50:34.153Z,98668.34
2023-06-11T04:53:04.463Z,98671.19
2023-06-11T04:55:33.540Z,98671.66
2023-06-11T04:58:02.929Z,98690.88
2023-06-11T05:00:31.352Z,98700.50
2023-06-11T05:03:03.574Z,98679.31
2023-06-11T05:05:33.340Z,98701.31
2023-06-11T05:08:01.173Z,98678.19
2023-06-11T05:10:28.865Z,98691.75
2023-06-11T05:12:55.843Z,98706.25
2023-06-11T05:15:23.210Z,98686.22
2023-06-11T05:17:53.247Z,98717.84
2023-06-11T05:20:22.229Z,98709.09
2023-06-11T05:22:50.789Z,98672.72
2023-06-11T05:25:21.494Z,98703.91
2023-06-11T05:27:53.156Z,98711.09
2023-06-11T05:30:25.485Z,98708.28
2023-06-11T05:32:56.642Z,98711.47
2023-06-11T05:35:24.449Z,98712.69
2023-06-11T05:37:51.590Z,98696.72
2023-06-11T05:40:18.909Z,98713.50
2023-06-11T05:42:46.185Z,98706.69
2023-06-11T05:45:13.539Z,98718.69
2023-06-11T05:47:41.178Z,98714.28
2023-06-11T05:50:08.964Z,98718.31
2023-06-11T05:52:36.390Z,98721.88
2023-06-11T05:55:05.582Z,98701.09
2023-06-11T05:57:32.624Z,98726.22
2023-06-11T06:00:00.261Z,98719.78
2023-06-11T06:02:30.038Z,98719.38
2023-06-11T06:04:59.465Z,98727.38
2023-06-11T06:07:26.818Z,98724.53
2023-06-11T06:09:58.003Z,98728.13
2023-06-11T06:12:25.583Z,98738.50
2023-06-11T06:14:52.595Z,98706.09
2023-06-11T06:17:19.764Z,98707.66
2023-06-11T06:19:46.660Z,98729.09
2023-06-11T06:22:15.169Z,98710.56
2023-06-11T06:24:42.341Z,98720.91
2023-06-11T06:27:09.311Z,98714.06
2023-06-11T06:29:40.111Z,98713.31
2023-06-11T06:32:09.227Z,98708.09
2023-06-11T06:34:36.825Z,98729.56
2023-06-11T06:37:04.303Z,98719.13
2023-06-11T06:39:32.757Z,98722.19
2023-06-11T06:41:59.877Z,98703.03
2023-06-11T06:44:37.986Z,98702.94
2023-06-11T06:47:05.595Z,98700.47
2023-06-11T06:49:32.682Z,98720.47
2023-06-11T06:51:59.598Z,98709.28
2023-06-11T06:54:28.371Z,98674.09
2023-06-11T06:56:56.185Z,98730.59
2023-06-11T06:59:23.465Z,98728.81
2023-06-11T07:01:51.049Z,98713.63
2023-06-11T07:04:18.150Z,98717.06
2023-06-11T07:06:45.611Z,98706.16
2023-06-11T07:09:12.783Z,98719.91
2023-06-11T07:11:42.109Z,98724.63
2023-06-11T07:14:09.265Z,98700.03
2023-06-11T07:16:39.760Z,98721.94
2023-06-11T07:19:07.641Z,98709.88
2023-06-11T07:21:37.223Z,98690.56
2023-06-11T07:24:06.209Z,98701.19
2023-06-11T07:26:33.684Z,98719.81
2023-06-11T07:29:01.433Z,98708.28
2023-06-11T07:31:28.799Z,98704.69
2023-06-11T07:33:56.495Z,98697.34
2023-06-11T07:36:23.544Z,98723.06
2023-06-11T07:38:51.034Z,98727.47
2023-06-11T07:41:19.163Z,98704.19
2023-06-11T07:43:46.441Z,98701.94
2023-06-11T07:46:18.659Z,98725.81
2023-06-11T07:48:46.446Z,98724.28
2023-06-11T07:51:19.192Z,98726.72
2023-06-11T07:53:48.845Z,98724.03
2023-06-11T07:56:16.000Z,98726.41
2023-06-11T07:58:43.110Z,98733.63
2023-06-11T08:01:10.248Z,98699.66
2023-06-11T08:03:37.536Z,98727.41
2023-06-11T08:06:04.827Z,98720.91
2023-06-11T08:08:31.845Z,98708.69
2023-06-11T08:10:59.251Z,98718.22
2023-06-11T08:13:26.361Z,98709.78
2023-06-11T08:15:54.265Z,98725.13
2023-06-11T08:18:21.670Z,98685.09
2023-06-11T08:20:48.964Z,98735.22
2023-06-11T08:23:15.956Z,98731.81
2023-06-11T08:25:43.439Z,98716.38
2023-06-11T08:28:10.689Z,98714.28
2023-06-11T08:30:37.638Z,98725.31
2023-06-11T08:33:05.304Z,98704.72
2023-06-11T08:35:32.346Z,98717.72
2023-06-11T08:38:14.081Z,98731.91
2023-06-11T08:40:42.812Z,98727.38
2023-06-11T08:43:10.336Z,98724.63
2023-06-11T08:45:38.040Z,98733.94
2023-06-11T08:48:06.514Z,98728.66
2023-06-11T08:50:33.520Z,98727.28
2023-06-11T08:53:04.665Z,98724.59
2023-06-11T08:55:32.167Z,98704.31
2023-06-11T08:57:59.612Z,98727.78
2023-06-11T09:00:26.534Z,98702.91
2023-06-11T09:02:55.126Z,98716.00
2023-06-11T09:05:22.643Z,98714.13
2023-06-11T09:07:53.800Z,98715.63
2023-06-11T09:10:21.644Z,98717.72
2023-06-11T09:12:48.918Z,98712.66
2023-06-11T09:15:17.270Z,98709.69
2023-06-11T09:17:50.318Z,98710.75
2023-06-11T09:20:18.210Z,98706.03
2023-06-11T09:22:46.756Z,98716.94
2023-06-11T09:25:20.632Z,98715.44
2023-06-11T09:27:49.001Z,98700.03
2023-06-11T09:30:18.437Z,98713.72
2023-06-11T09:32:48.152Z,98714.59
2023-06-11T09:35:20.176Z,98709.72
2023-06-11T09:37:52.172Z,98712.59
2023-06-11T09:40:21.807Z,98705.66
2023-06-11T09:42:49.795Z,98697.13
2023-06-11T09:45:20.645Z,98711.44
2023-06-11T09:47:49.060Z,98713.38
2023-06-11T09:50:23.309Z,98711.81
2023-06-11T09:52:52.534Z,98710.56
2023-06-11T09:55:19.760Z,98705.28
2023-06-11T09:57:47.349Z,98684.38
2023-06-11T10:00:15.122Z,98696.41
2023-06-11T10:02:43.791Z,98681.91
2023-06-11T10:05:14.180Z,98691.34
2023-06-11T10:07:48.560Z,98695.22
2023-06-11T10:10:23.046Z,98693.38
2023-06-11T10:12:54.438Z,98658.88
2023-06-11T10:16:01.017Z,98682.72
2023-06-11T10:18:30.977Z,98675.56
2023-06-11T10:21:06.557Z,98674.25
2023-06-11T10:23:44.435Z,98666.13
2023-06-11T10:26:11.756Z,98646.53
2023-06-11T10:28:42.922Z,98630.84
2023-06-11T10:31:10.065Z,98665.84
2023-06-11T10:33:46.296Z,98659.69
2023-06-11T10:36:24.053Z,98654.56
2023-06-11T10:39:05.077Z,98647.56
2023-06-11T10:41:32.325Z,98630.34
2023-06-11T10:43:59.501Z,98631.44
2023-06-11T10:46:26.839Z,98637.00
2023-06-11T10:48:55.767Z,98635.88
2023-06-11T10:51:22.998Z,98622.56
2023-06-11T10:53:58.375Z,98631.34
2023-06-11T10:56:27.491Z,98622.59
2023-06-11T10:58:56.420Z,98629.06
2023-06-11T11:01:23.800Z,98628.09
2023-06-11T11:03:51.953Z,98621.91
2023-06-11T11:06:29.515Z,98632.28
2023-06-11T11:08:57.682Z,98631.06
2023-06-11T11:11:25.629Z,98620.63
2023-06-11T11:13:52.697Z,98625.34
2023-06-11T11:16:22.875Z,98621.69
2023-06-11T11:18:50.386Z,98608.81
2023-06-11T11:21:20.135Z,98593.66
2023-06-11T11:23:49.392Z,98597.44
2023-06-11T11:26:18.795Z,98602.78
2023-06-11T11:28:48.539Z,98602.66
2023-06-11T11:31:18.923Z,98580.22
2023-06-11T11:33:51.443Z,98598.31
2023-06-11T11:36:24.045Z,98588.13
2023-06-11T11:38:51.767Z,98567.22
2023-06-11T11:41:23.866Z,98542.50
2023-06-11T11:43:54.803Z,98526.59
2023-06-11T11:46:24.888Z,98574.94
2023-06-11T11:48:58.857Z,98573.91
2023-06-11T11:51:26.813Z,98562.22
2023-06-11T11:53:54.030Z,98556.66
2023-06-11T11:56:21.157Z,98554.88
2023-06-11T11:58:48.162Z,98564.41
2023-06-11T12:01:24.056Z,98556.16
2023-06-11T12:04:02.684Z,98558.19
2023-06-11T12:06:33.027Z,98564.75
2023-06-11T12:09:00.178Z,98556.22
2023-06-11T12:11:27.234Z,98545.25
2023-06-11T12:13:54.652Z,98552.81
2023-06-11T12:16:23.895Z,98545.72
2023-06-11T12:18:51.116Z,98565.63
2023-06-11T12:21:18.326Z,98560.31
2023-06-11T12:23:45.555Z,98558.63
2023-06-11T12:26:12.597Z,98570.97
2023-06-11T12:28:39.753Z,98570.50
2023-06-11T12:31:08.004Z,98568.59
2023-06-11T12:33:35.879Z,98580.22
2023-06-11T12:36:02.915Z,98570.97
2023-06-11T12:38:29.917Z,98580.69
2023-06-11T12:40:57.249Z,98612.84
2023-06-11T12:43:24.331Z,98597.69
2023-06-11T12:45:53.768Z,98631.69
2023-06-11T12:48:21.066Z,98620.63
2023-06-11T12:50:48.296Z,98624.91
2023-06-11T12:53:15.640Z,98629.84
2023-06-11T12:55:42.786Z,98642.47
2023-06-11T12:58:09.814Z,98658.00
2023-06-11T13:00:37.086Z,98664.38
2023-06-11T13:03:07.847Z,98656.00
2023-06-11T13:05:34.833Z,98649.16
2023-06-11T13:08:02.181Z,98657.28
2023-06-11T13:10:29.449Z,98668.44
2023-06-11T13:12:58.191Z,98667.31
2023-06-11T13:15:25.854Z,98663.84
2023-06-11T13:17:53.145Z,98676.72
2023-06-11T13:20:22.353Z,98676.06
2023-06-11T13:22:50.113Z,98667.72
2023-06-11T13:25:17.689Z,98675.88
2023-06-11T13:27:44.814Z,98682.50
2023-06-11T13:30:12.802Z,98658.56
2023-06-11T13:32:40.626Z,98653.16
2023-06-11T13:35:08.194Z,98671.81
2023-06-11T13:37:35.635Z,98652.56
2023-06-11T13:40:02.862Z,98646.94
2023-06-11T13:42:30.300Z,98660.75
2023-06-11T13:44:57.200Z,98633.38
2023-06-11T13:47:24.691Z,98647.53
2023-06-11T13:49:52.056Z,98639.47
2023-06-11T13:52:19.695Z,98631.16
2023-06-11T13:54:46.970Z,98625.88
2023-06-11T13:57:14.377Z,98614.31
2023-06-11T13:59:44.550Z,98619.31
2023-06-11T14:02:11.584Z,98615.06
2023-06-11T14:04:38.485Z,98619.97
2023-06-11T14:07:05.446Z,98592.81
2023-06-11T14:09:32.623Z,98596.81
2023-06-11T14:11:59.720Z,98585.13
2023-06-11T14:14:31.070Z,98616.03
2023-06-11T14:17:01.010Z,98609.28
2023-06-11T14:19:29.235Z,98604.38
2023-06-11T14:21:56.246Z,98621.56
2023-06-11T14:24:24.949Z,98622.59
2023-06-11T14:26:52.527Z,98631.59
2023-06-11T14:29:19.759Z,98615.25
2023-06-11T14:31:46.755Z,98610.06
2023-06-11T14:34:13.629Z,98628.97
2023-06-11T14:36:41.148Z,98596.47
2023-06-11T14:39:08.352Z,98612.84
2023-06-11T14:41:35.438Z,98607.69
2023-06-11T14:44:02.525Z,98609.19
2023-06-11T14:46:29.756Z,98604.00
2023-06-11T14:48:56.811Z,98591.88
2023-06-11T14:51:24.449Z,98586.56
2023-06-11T14:53:51.482Z,98606.06
2023-06-11T14:56:18.804Z,98611.81
2023-06-11T14:58:46.168Z,98599.38
2023-06-11T15:01:14.639Z,98603.56
2023-06-11T15:03:41.674Z,98560.31
2023-06-11T15:06:08.885Z,98598.22
2023-06-11T15:08:36.112Z,98610.22
2023-06-11T15:11:03.219Z,98600.78
2023-06-11T15:13:30.220Z,98606.59
2023-06-11T15:15:57.330Z,98601.06
2023-06-11T15:18:24.607Z,98602.09
2023-06-11T15:20:51.829Z,98601.53
2023-06-11T15:23:20.513Z,98607.41
2023-06-11T15:25:49.544Z,98589.09
2023-06-11T15:28:20.625Z,98586.09
2023-06-11T15:30:58.281Z,98607.44
2023-06-11T15:33:25.256Z,98606.63
2023-06-11T15:35:55.083Z,98608.44
2023-06-11T15:38:28.400Z,98626.38
2023-06-11T15:40:55.679Z,98632.59
2023-06-11T15:43:22.940Z,98629.41
2023-06-11T15:45:50.839Z,98633.38
2023-06-11T15:48:17.982Z,98633.00
2023-06-11T15:50:45.044Z,98637.41
2023-06-11T15:53:12.030Z,98616.69
2023-06-11T15:55:41.553Z,98624.47
2023-06-11T15:58:09.207Z,98626.53
2023-06-11T16:00:36.559Z,98623.69
2023-06-11T16:03:03.801Z,98643.59
2023-06-11T16:05:30.984Z,98648.81
2023-06-11T16:07:57.901Z,98634.47
2023-06-11T16:10:25.009Z,98660.03
2023-06-11T16:12:51.993Z,98642.53
2023-06-11T16:15:19.087Z,98643.19
2023-06-11T16:17:48.013Z,98647.75
2023-06-11T16:20:15.455Z,98657.72
2023-06-11T16:22:43.017Z,98659.75
2023-06-11T16:25:10.430Z,98641.41
2023-06-11T16:27:37.738Z,98638.25
2023-06-11T16:30:05.166Z,98643.94
2023-06-11T16:32:32.304Z,98650.81
2023-06-11T16:34:59.473Z,98636.34
2023-06-11T16:37:27.159Z,98606.78
2023-06-11T16:39:54.126Z,98633.84
2023-06-11T16:42:33.692Z,98638.31
2023-06-11T16:45:00.805Z,98647.47
2023-06-11T16:47:27.867Z,98651.47
2023-06-11T16:49:59.945Z,98664.09
2023-06-11T16:52:29.028Z,98662.22
2023-06-11T16:54:58.731Z,98675.28
2023-06-11T16:57:25.670Z,98683.56
2023-06-11T16:59:52.707Z,98734.91
2023-06-11T17:02:20.557Z,98759.59
2023-06-11T17:04:48.209Z,98747.78
2023-06-11T17:07:15.297Z,98751.31
2023-06-11T17:09:43.768Z,98769.75
2023-06-11T17:12:13.867Z,98770.03
2023-06-11T17:14:41.597Z,98772.09
2023-06-11T17:17:08.811Z,98791.53
2023-06-11T17:19:36.202Z,98786.41
2023-06-11T17:22:03.184Z,98786.75
2023-06-11T17:24:30.695Z,98798.06
2023-06-11T17:26:57.768Z,98802.94
2023-06-11T17:29:24.797Z,98797.34
2023-06-11T17:31:51.867Z,98802.41
2023-06-11T17:34:18.999Z,98769.75
2023-06-11T17:36:46.207Z,98783.75
2023-06-11T17:39:13.168Z,98778.25
2023-06-11T17:41:40.367Z,98804.31
2023-06-11T17:44:07.404Z,98801.19
2023-06-11T17:46:34.404Z,98788.47
2023-06-11T17:49:02.111Z,98803.25
2023-06-11T17:51:29.216Z,98796.53
2023-06-11T17:53:56.416Z,98799.78
2023-06-11T17:56:23.583Z,98787.00
2023-06-11T17:58:50.683Z,98767.03
2023-06-11T18:01:18.541Z,98771.44
2023-06-11T18:03:47.179Z,98795.41
2023-06-11T18:06:16.199Z,98785.44
2023-06-11T18:08:44.896Z,98765.09
2023-06-11T18:11:11.774Z,98780.66
2023-06-11T18:13:39.869Z,98770.28
2023-06-11T18:16:06.984Z,98767.06
2023-06-11T18:18:33.863Z,98766.69
2023-06-11T18:21:01.141Z,98757.06
2023-06-11T18:23:28.344Z,98731.06
2023-06-11T18:25:55.652Z,98746.66
2023-06-11T18:28:25.609Z,98731.06
2023-06-11T18:30:54.579Z,98719.09
2023-06-11T18:33:21.663Z,98701.50
2023-06-11T18:35:48.559Z,98709.50
2023-06-11T18:38:15.852Z,98704.69
2023-06-11T18:40:42.929Z,98705.09
2023-06-11T18:43:09.989Z,98709.50
2023-06-11T18:45:37.103Z,98721.47
2023-06-11T18:48:04.531Z,98739.06
2023-06-11T18:50:31.620Z,98747.84
2023-06-11T18:52:58.658Z,98715.09
2023-06-11T18:55:27.073Z,98741.03
2023-06-11T18:57:54.008Z,98736.66
2023-06-11T19:00:21.417Z,98732.66
2023-06-11T19:02:48.892Z,98741.47
2023-06-11T19:05:16.509Z,98734.25
2023-06-11T19:07:43.725Z,98739.03
2023-06-11T19:10:14.331Z,98750.22
2023-06-11T19:12:42.666Z,98742.59
2023-06-11T19:15:10.118Z,98752.59
2023-06-11T19:17:37.448Z,98744.56
2023-06-11T19:20:04.897Z,98746.97
2023-06-11T19:22:31.905Z,98769.38
2023-06-11T19:25:02.133Z,98761.41
2023-06-11T19:27:29.793Z,98755.00
2023-06-11T19:30:02.609Z,98763.03
2023-06-11T19:32:54.643Z,98767.81
2023-06-11T19:35:22.284Z,98777.00
2023-06-11T19:37:49.710Z,98771.78
2023-06-11T19:40:16.688Z,98750.19
2023-06-11T19:42:43.875Z,98764.59
2023-06-11T19:45:15.390Z,98754.19
2023-06-11T19:47:44.850Z,98748.91
2023-06-11T19:50:12.567Z,98755.69
2023-06-11T19:52:47.193Z,98760.53
2023-06-11T19:55:18.505Z,98751.66
2023-06-11T19:57:51.413Z,98759.63
2023-06-11T20:00:18.958Z,98761.22
2023-06-11T20:02:46.249Z,98748.41
2023-06-11T20:05:13.504Z,98753.63
2023-06-11T20:07:52.223Z,98767.63
2023-06-11T20:10:19.198Z,98754.44
2023-06-11T20:12:56.004Z,98758.00
2023-06-11T20:15:33.441Z,98755.59
2023-06-11T20:18:00.683Z,98756.38
2023-06-11T20:20:27.665Z,98736.41
2023-06-11T20:22:54.612Z,98734.00
2023-06-11T20:25:22.144Z,98758.81
2023-06-11T20:27:50.322Z,98756.38
2023-06-11T20:30:17.699Z,98777.25
2023-06-11T20:32:44.737Z,98777.31
2023-06-11T20:35:14.939Z,98774.09
2023-06-11T20:37:41.904Z,98753.25
2023-06-11T20:40:09.663Z,98750.41
2023-06-11T20:42:37.597Z,98751.97
2023-06-11T20:45:05.038Z,98741.53
2023-06-11T20:47:32.315Z,98773.53
2023-06-11T20:49:59.547Z,98766.72
2023-06-11T20:52:27.572Z,98763.44
2023-06-11T20:54:54.693Z,98753.03
2023-06-11T20:57:21.883Z,98764.63
2023-06-11T20:59:48.924Z,98764.97
2023-06-11T21:02:16.080Z,98766.09
2023-06-11T21:04:43.090Z,98772.47
2023-06-11T21:07:10.221Z,98772.09
2023-06-11T21:09:37.229Z,98768.47
2023-06-11T21:12:04.587Z,98729.59
2023-06-11T21:14:31.877Z,98760.88
2023-06-11T21:16:58.756Z,98747.16
2023-06-11T21:19:25.956Z,98765.66
2023-06-11T21:21:52.976Z,98763.97
2023-06-11T21:24:20.547Z,98768.38
2023-06-11T21:26:47.592Z,98745.53
2023-06-11T21:29:14.831Z,98759.16
2023-06-11T21:31:43.626Z,98738.38
2023-06-11T21:34:10.752Z,98749.88
2023-06-11T21:36:37.860Z,98761.81
2023-06-11T21:39:05.098Z,98764.59
2023-06-11T21:41:32.064Z,98741.41
2023-06-11T21:43:59.255Z,98725.41
2023-06-11T21:46:26.436Z,98761.78
2023-06-11T21:48:53.752Z,98748.91
2023-06-11T21:51:22.132Z,98742.88
2023-06-11T21:53:48.998Z,98747.16
2023-06-11T21:56:16.097Z,98740.78
2023-06-11T21:58:43.145Z,98747.63
2023-06-11T22:01:10.357Z,98736.75
2023-06-11T22:03:37.560Z,98741.91
2023-06-11T22:06:04.885Z,98739.50
2023-06-11T22:08:32.095Z,98750.66
2023-06-11T22:10:59.185Z,98739.06
2023-06-11T22:13:26.159Z,98717.75
2023-06-11T22:15:53.230Z,98719.28
2023-06-11T22:18:22.852Z,98695.19
2023-06-11T22:20:50.153Z,98743.44
2023-06-11T22:23:17.349Z,98752.63
2023-06-11T22:25:44.319Z,98740.28
2023-06-11T22:28:11.512Z,98730.47
2023-06-11T22:30:52.855Z,98737.59
2023-06-11T22:33:23.664Z,98748.03
2023-06-11T22:35:53.514Z,98752.63
2023-06-11T22:38:20.629Z,98764.25
2023-06-11T22:40:47.610Z,98740.28
2023-06-11T22:43:14.644Z,98733.84
2023-06-11T22:45:41.549Z,98743.50
2023-06-11T22:48:08.758Z,98720.25
2023-06-11T22:50:36.306Z,98731.41
2023-06-11T22:53:03.612Z,98729.44
2023-06-11T22:55:30.711Z,98716.94
2023-06-11T22:57:57.633Z,98731.56
2023-06-11T23:00:24.982Z,98729.16
2023-06-11T23:02:52.770Z,98698.66
2023-06-11T23:05:20.001Z,98702.13
2023-06-11T23:07:47.675Z,98730.06
2023-06-11T23:10:20.120Z,98730.84
2023-06-11T23:12:47.572Z,98728.38
2023-06-11T23:15:14.714Z,98731.66
2023-06-11T23:17:42.578Z,98733.25
2023-06-11T23:20:10.678Z,98729.28
2023-06-11T23:22:38.415Z,98730.09
2023-06-11T23:25:05.956Z,98726.84
2023-06-11T23:27:34.948Z,98732.09
2023-06-11T23:30:03.660Z,98721.25
2023-06-11T23:32:31.329Z,98724.41
2023-06-11T23:35:01.246Z,98729.28
2023-06-11T23:37:29.406Z,98731.31
2023-06-11T23:39:56.645Z,98709.22
2023-06-11T23:42:23.762Z,98717.97
2023-06-11T23:44:51.304Z,98723.56
2023-06-11T23:47:18.367Z,98727.09
2023-06-11T23:49:45.339Z,98728.31
2023-06-11T23:52:12.269Z,98707.44
2023-06-11T23:54:39.248Z,98730.72
2023-06-11T23:57:06.465Z,98671.72
2023-06-11T23:59:33.577Z,98717.47
